createdAt,value
2017-11-08T00:02:13.343Z,37.83
2017-11-08T00:04:43.402Z,42.03
2017-11-08T00:07:10.890Z,44.83
2017-11-08T00:09:38.954Z,35.77
2017-11-08T00:12:06.417Z,84.73
2017-11-08T00:14:33.899Z,33.70
2017-11-08T00:17:02.128Z,75.30
2017-11-08T00:19:30.288Z,43.43
2017-11-08T00:22:12.680Z,96.50
2017-11-08T00:24:40.212Z,45.73
2017-11-08T00:27:08.435Z,37.30
2017-11-08T00:29:35.911Z,72.20
2017-11-08T00:32:03.388Z,53.80
2017-11-08T00:34:31.689Z,54.63
2017-11-08T00:37:00.275Z,48.97
2017-11-08T00:39:28.511Z,60.97
2017-11-08T00:41:56.086Z,43.13
2017-11-08T00:44:23.555Z,59.17
2017-11-08T00:46:51.783Z,66.03
2017-11-08T00:49:20.012Z,63.77
2017-11-08T00:51:54.895Z,54.57
2017-11-08T00:54:22.356Z,68.77
2017-11-08T00:56:49.820Z,45.23
2017-11-08T00:59:17.300Z,44.00
2017-11-08T01:01:45.543Z,92.17
2017-11-08T01:04:13.519Z,57.50
2017-11-08T01:06:40.993Z,38.40
2017-11-08T01:09:09.231Z,34.53
2017-11-08T01:11:36.926Z,49.40
2017-11-08T01:14:05.171Z,72.60
2017-11-08T01:16:32.638Z,37.50
2017-11-08T01:19:00.116Z,185.10
2017-11-08T01:21:28.377Z,119.80
2017-11-08T01:23:55.947Z,56.70
2017-11-08T01:26:23.410Z,36.43
2017-11-08T01:28:51.681Z,50.40
2017-11-08T01:31:20.295Z,42.27
2017-11-08T01:33:47.772Z,84.27
2017-11-08T01:36:15.253Z,62.33
2017-11-08T01:38:42.731Z,38.60
2017-11-08T01:41:17.524Z,56.30
2017-11-08T01:43:44.983Z,42.40
2017-11-08T01:46:16.428Z,49.33
2017-11-08T01:48:43.886Z,73.73
2017-11-08T01:51:13.291Z,88.00
2017-11-08T01:53:40.799Z,62.80
2017-11-08T01:56:09.728Z,44.33
2017-11-08T01:58:37.418Z,102.40
2017-11-08T02:01:04.883Z,66.17
2017-11-08T02:03:32.351Z,63.67
2017-11-08T02:05:59.825Z,32.70
2017-11-08T02:08:28.078Z,34.80
2017-11-08T02:10:55.935Z,57.17
2017-11-08T02:13:23.503Z,59.43
2017-11-08T02:15:51.083Z,45.17
2017-11-08T02:18:21.798Z,42.37
2017-11-08T02:20:50.044Z,38.83
2017-11-08T02:23:18.153Z,40.03
2017-11-08T02:25:46.390Z,74.30
2017-11-08T02:28:13.909Z,43.20
2017-11-08T02:30:41.388Z,48.53
2017-11-08T02:33:08.880Z,31.10
2017-11-08T02:35:36.461Z,36.60
2017-11-08T02:38:05.551Z,45.13
2017-11-08T02:40:33.058Z,37.87
2017-11-08T02:43:01.284Z,70.03
2017-11-08T02:45:31.401Z,33.27
2017-11-08T02:47:59.637Z,58.63
2017-11-08T02:50:27.096Z,50.27
2017-11-08T02:52:54.592Z,75.87
2017-11-08T02:55:22.829Z,101.23
2017-11-08T02:57:50.323Z,71.50
2017-11-08T03:00:18.740Z,41.30
2017-11-08T03:02:51.093Z,40.63
2017-11-08T03:05:19.351Z,57.53
2017-11-08T03:07:46.815Z,69.60
2017-11-08T03:10:15.047Z,57.20
2017-11-08T03:12:42.531Z,48.63
2017-11-08T03:15:10.458Z,48.93
2017-11-08T03:17:37.984Z,48.60
2017-11-08T03:20:05.527Z,47.60
2017-11-08T03:22:32.997Z,66.27
2017-11-08T03:25:00.533Z,46.27
2017-11-08T03:27:28.282Z,111.17
2017-11-08T03:29:55.863Z,93.47
2017-11-08T03:32:24.191Z,62.33
2017-11-08T03:34:51.777Z,78.73
2017-11-08T03:37:19.361Z,83.33
2017-11-08T03:39:48.035Z,74.93
2017-11-08T03:42:15.512Z,82.23
2017-11-08T03:44:43.738Z,112.13
2017-11-08T03:47:11.228Z,72.33
2017-11-08T03:49:38.687Z,68.13
2017-11-08T03:52:06.919Z,51.30
2017-11-08T03:54:34.446Z,62.47
2017-11-08T03:57:01.976Z,62.73
2017-11-08T03:59:30.246Z,92.70
2017-11-08T04:01:59.251Z,77.93
2017-11-08T04:04:26.714Z,66.40
2017-11-08T04:06:54.942Z,66.67
2017-11-08T04:09:22.430Z,56.17
2017-11-08T04:11:50.675Z,66.40
2017-11-08T04:14:18.560Z,95.77
2017-11-08T04:16:46.136Z,86.33
2017-11-08T04:19:15.112Z,89.87
2017-11-08T04:21:42.583Z,59.90
2017-11-08T04:24:10.857Z,76.20
2017-11-08T04:26:39.295Z,92.37
2017-11-08T04:29:06.760Z,63.43
2017-11-08T04:31:34.217Z,66.80
2017-11-08T04:34:01.692Z,67.87
2017-11-08T04:36:29.274Z,84.63
2017-11-08T04:38:56.727Z,80.77
2017-11-08T04:41:24.995Z,97.97
2017-11-08T04:43:53.271Z,76.83
2017-11-08T04:46:21.505Z,73.83
2017-11-08T04:48:48.980Z,82.47
2017-11-08T04:51:16.431Z,111.73
2017-11-08T04:53:43.887Z,64.83
2017-11-08T04:56:11.351Z,86.83
2017-11-08T04:58:38.828Z,92.03
2017-11-08T05:01:06.292Z,59.83
2017-11-08T05:03:33.771Z,88.57
2017-11-08T05:06:01.998Z,69.17
2017-11-08T05:08:29.848Z,69.97
2017-11-08T05:10:57.343Z,76.67
2017-11-08T05:13:25.618Z,82.50
2017-11-08T05:15:54.588Z,67.13
2017-11-08T05:18:22.068Z,89.00
2017-11-08T05:20:51.936Z,111.53
2017-11-08T05:23:20.167Z,94.43
2017-11-08T05:25:47.707Z,84.13
2017-11-08T05:28:15.178Z,80.67
2017-11-08T05:30:43.498Z,71.67
2017-11-08T05:33:11.527Z,131.37
2017-11-08T05:35:39.764Z,104.10
2017-11-08T05:38:07.231Z,128.90
2017-11-08T05:40:34.807Z,97.30
2017-11-08T05:43:02.299Z,82.90
2017-11-08T05:45:29.827Z,87.27
2017-11-08T05:47:58.495Z,141.10
2017-11-08T05:50:25.960Z,83.47
2017-11-08T05:52:54.195Z,153.37
2017-11-08T05:55:21.681Z,124.97
2017-11-08T05:57:49.151Z,139.80
2017-11-08T06:00:16.742Z,120.30
2017-11-08T06:02:45.000Z,177.63
2017-11-08T06:05:13.224Z,122.03
2017-11-08T06:07:40.716Z,112.07
2017-11-08T06:10:08.959Z,113.00
2017-11-08T06:12:36.453Z,97.03
2017-11-08T06:15:04.679Z,108.37
2017-11-08T06:17:32.213Z,85.80
2017-11-08T06:19:59.758Z,100.33
2017-11-08T06:22:28.023Z,121.40
2017-11-08T06:24:55.509Z,117.47
2017-11-08T06:27:23.732Z,94.90
2017-11-08T06:29:51.212Z,92.13
2017-11-08T06:32:19.478Z,149.73
2017-11-08T06:34:47.712Z,132.23
2017-11-08T06:37:15.170Z,99.37
2017-11-08T06:39:42.655Z,95.10
2017-11-08T06:42:10.180Z,106.20
2017-11-08T06:44:38.279Z,102.03
2017-11-08T06:47:05.760Z,109.60
2017-11-08T06:49:33.323Z,91.73
2017-11-08T06:52:00.786Z,99.13
2017-11-08T06:54:29.022Z,89.20
2017-11-08T06:56:56.746Z,91.13
2017-11-08T06:59:24.213Z,99.77
2017-11-08T07:01:51.689Z,100.17
2017-11-08T07:04:19.960Z,101.63
2017-11-08T07:06:47.426Z,82.70
2017-11-08T07:09:14.911Z,90.53
2017-11-08T07:11:43.903Z,93.07
2017-11-08T07:14:12.135Z,85.57
2017-11-08T07:16:39.647Z,77.80
2017-11-08T07:19:07.199Z,104.27
2017-11-08T07:21:34.659Z,95.67
2017-11-08T07:24:02.894Z,96.57
2017-11-08T07:26:30.391Z,106.73
2017-11-08T07:28:57.919Z,107.23
2017-11-08T07:31:25.506Z,93.43
2017-11-08T07:33:52.999Z,116.80
2017-11-08T07:36:20.515Z,101.40
2017-11-08T07:38:47.984Z,98.33
2017-11-08T07:41:16.250Z,99.47
2017-11-08T07:43:45.230Z,119.50
2017-11-08T07:46:12.812Z,113.93
2017-11-08T07:48:40.363Z,106.33
2017-11-08T07:51:07.920Z,98.03
2017-11-08T07:53:36.904Z,96.40
2017-11-08T07:56:04.367Z,112.90
2017-11-08T07:58:31.924Z,95.90
2017-11-08T08:00:59.406Z,125.27
2017-11-08T08:03:27.632Z,94.73
2017-11-08T08:05:55.106Z,101.37
2017-11-08T08:08:22.582Z,95.50
2017-11-08T08:10:50.039Z,105.83
2017-11-08T08:13:19.228Z,116.07
2017-11-08T08:15:46.715Z,110.67
2017-11-08T08:18:14.959Z,109.60
2017-11-08T08:20:43.193Z,98.27
2017-11-08T08:23:10.709Z,112.30
2017-11-08T08:25:38.952Z,128.80
2017-11-08T08:28:06.424Z,112.33
2017-11-08T08:30:33.939Z,131.47
2017-11-08T08:33:01.407Z,110.83
2017-11-08T08:35:28.871Z,123.90
2017-11-08T08:37:56.468Z,120.77
2017-11-08T08:40:24.736Z,107.20
2017-11-08T08:42:52.986Z,115.43
2017-11-08T08:45:20.559Z,98.03
2017-11-08T08:47:48.028Z,125.13
2017-11-08T08:50:15.511Z,115.10
2017-11-08T08:52:42.971Z,130.27
2017-11-08T08:55:10.496Z,140.63
2017-11-08T08:57:38.536Z,133.83
2017-11-08T09:00:06.012Z,118.50
2017-11-08T09:02:33.494Z,103.30
2017-11-08T09:05:01.744Z,115.53
2017-11-08T09:07:30.743Z,116.33
2017-11-08T09:09:58.224Z,102.03
2017-11-08T09:12:26.529Z,107.67
2017-11-08T09:14:53.994Z,122.37
2017-11-08T09:17:21.470Z,107.43
2017-11-08T09:19:48.958Z,109.43
2017-11-08T09:22:17.225Z,125.17
2017-11-08T09:24:52.384Z,110.50
2017-11-08T09:27:20.612Z,120.27
2017-11-08T09:29:53.711Z,135.70
2017-11-08T09:32:21.294Z,123.97
2017-11-08T09:34:49.568Z,133.80
2017-11-08T09:37:32.736Z,114.37
2017-11-08T09:40:00.191Z,96.97
2017-11-08T09:42:31.693Z,121.43
2017-11-08T09:44:59.175Z,116.30
2017-11-08T09:47:27.405Z,113.10
2017-11-08T09:50:00.743Z,114.30
2017-11-08T09:52:28.980Z,122.60
2017-11-08T09:54:56.453Z,110.73
2017-11-08T09:57:25.852Z,104.77
2017-11-08T09:59:53.418Z,125.60
2017-11-08T10:02:20.970Z,107.10
2017-11-08T10:04:48.532Z,120.23
2017-11-08T10:07:16.017Z,119.63
2017-11-08T10:09:50.109Z,118.17
2017-11-08T10:12:18.174Z,131.40
2017-11-08T10:14:45.635Z,130.10
2017-11-08T10:17:13.891Z,130.17
2017-11-08T10:19:41.372Z,122.27
2017-11-08T10:22:09.591Z,129.97
2017-11-08T10:24:37.084Z,121.20
2017-11-08T10:27:04.555Z,126.57
2017-11-08T10:29:32.791Z,115.33
2017-11-08T10:32:00.247Z,120.53
2017-11-08T10:34:27.730Z,120.07
2017-11-08T10:36:55.197Z,120.20
2017-11-08T10:39:22.660Z,117.47
2017-11-08T10:41:50.904Z,106.40
2017-11-08T10:44:19.121Z,121.10
2017-11-08T10:46:46.589Z,113.13
2017-11-08T10:49:19.830Z,97.50
2017-11-08T10:51:48.057Z,111.83
2017-11-08T10:54:15.541Z,105.30
2017-11-08T10:56:43.105Z,105.90
2017-11-08T10:59:16.309Z,120.77
2017-11-08T11:01:44.585Z,115.53
2017-11-08T11:04:12.832Z,127.20
2017-11-08T11:06:40.396Z,118.47
2017-11-08T11:09:07.968Z,129.60
2017-11-08T11:11:35.436Z,103.97
2017-11-08T11:14:09.300Z,122.63
2017-11-08T11:16:36.783Z,119.10
2017-11-08T11:19:04.357Z,113.77
2017-11-08T11:21:39.118Z,101.90
2017-11-08T11:24:12.605Z,103.20
2017-11-08T11:26:41.986Z,110.23
2017-11-08T11:29:10.252Z,110.97
2017-11-08T11:31:37.772Z,112.53
2017-11-08T11:34:05.264Z,110.27
2017-11-08T11:36:32.731Z,106.40
2017-11-08T11:39:00.212Z,112.50
2017-11-08T11:41:28.442Z,105.90
2017-11-08T11:43:55.925Z,113.73
2017-11-08T11:46:23.399Z,102.10
2017-11-08T11:48:53.453Z,99.33
2017-11-08T11:51:25.760Z,93.20
2017-11-08T11:53:53.222Z,109.37
2017-11-08T11:56:20.776Z,90.70
2017-11-08T11:58:48.258Z,101.73
2017-11-08T12:01:16.484Z,102.03
2017-11-08T12:03:43.975Z,102.50
2017-11-08T12:06:11.489Z,91.87
2017-11-08T12:08:39.651Z,100.33
2017-11-08T12:11:07.181Z,90.07
2017-11-08T12:13:35.424Z,102.30
2017-11-08T12:16:02.887Z,97.47
2017-11-08T12:18:30.345Z,93.63
2017-11-08T12:20:57.836Z,85.50
2017-11-08T12:23:26.085Z,92.90
2017-11-08T12:25:53.550Z,93.57
2017-11-08T12:28:23.644Z,96.20
2017-11-08T12:30:51.108Z,91.27
2017-11-08T12:33:18.668Z,90.70
2017-11-08T12:35:47.887Z,89.13
2017-11-08T12:38:16.200Z,87.57
2017-11-08T12:40:43.688Z,81.73
2017-11-08T12:43:14.268Z,85.37
2017-11-08T12:45:41.763Z,73.03
2017-11-08T12:48:09.245Z,78.33
2017-11-08T12:50:36.719Z,66.87
2017-11-08T12:53:04.951Z,68.30
2017-11-08T12:55:32.416Z,73.30
2017-11-08T12:57:59.999Z,63.23
2017-11-08T13:00:27.460Z,79.20
2017-11-08T13:02:54.925Z,76.03
2017-11-08T13:05:30.625Z,76.07
2017-11-08T13:07:58.125Z,72.03
2017-11-08T13:10:26.415Z,78.83
2017-11-08T13:12:54.686Z,60.90
2017-11-08T13:15:22.940Z,64.27
2017-11-08T13:17:50.414Z,74.80
2017-11-08T13:20:18.876Z,75.30
2017-11-08T13:22:47.140Z,70.27
2017-11-08T13:25:14.734Z,77.30
2017-11-08T13:27:42.982Z,76.70
2017-11-08T13:30:10.457Z,78.33
2017-11-08T13:32:39.552Z,70.43
2017-11-08T13:35:07.025Z,80.00
2017-11-08T13:37:35.259Z,79.63
2017-11-08T13:40:03.508Z,79.73
2017-11-08T13:42:30.983Z,88.20
2017-11-08T13:44:58.457Z,79.40
2017-11-08T13:47:25.916Z,90.80
2017-11-08T13:49:53.488Z,91.97
2017-11-08T13:52:20.952Z,92.67
2017-11-08T13:54:49.320Z,104.77
2017-11-08T13:57:17.419Z,99.27
2017-11-08T13:59:45.652Z,99.30
2017-11-08T14:02:13.119Z,90.57
2017-11-08T14:04:40.690Z,80.60
2017-11-08T14:07:08.148Z,85.13
2017-11-08T14:09:35.626Z,86.57
2017-11-08T14:12:03.877Z,79.97
2017-11-08T14:14:31.348Z,78.30
2017-11-08T14:16:59.294Z,86.63
2017-11-08T14:19:27.281Z,72.70
2017-11-08T14:21:55.551Z,81.47
2017-11-08T14:24:23.012Z,72.70
2017-11-08T14:26:50.481Z,77.63
2017-11-08T14:29:20.808Z,75.77
2017-11-08T14:31:49.062Z,81.30
2017-11-08T14:34:16.592Z,74.27
2017-11-08T14:36:44.075Z,63.13
2017-11-08T14:39:11.536Z,79.80
2017-11-08T14:41:39.096Z,70.03
2017-11-08T14:44:07.368Z,70.87
2017-11-08T14:46:34.829Z,73.70
2017-11-08T14:49:02.302Z,70.50
2017-11-08T14:51:32.484Z,72.10
2017-11-08T14:53:59.948Z,68.37
2017-11-08T14:56:27.512Z,71.50
2017-11-08T14:58:54.984Z,72.90
2017-11-08T15:01:23.216Z,68.77
2017-11-08T15:03:50.699Z,73.97
2017-11-08T15:06:18.259Z,64.10
2017-11-08T15:08:45.724Z,74.33
2017-11-08T15:11:16.032Z,68.10
2017-11-08T15:13:43.506Z,62.83
2017-11-08T15:16:10.964Z,67.67
2017-11-08T15:18:39.448Z,65.70
2017-11-08T15:21:07.763Z,69.80
2017-11-08T15:23:35.275Z,70.20
2017-11-08T15:26:02.828Z,66.17
2017-11-08T15:28:31.076Z,73.60
2017-11-08T15:30:58.550Z,70.67
2017-11-08T15:33:26.021Z,70.47
2017-11-08T15:35:53.576Z,63.10
2017-11-08T15:38:21.041Z,69.77
2017-11-08T15:40:48.514Z,78.93
2017-11-08T15:43:18.585Z,69.17
2017-11-08T15:45:47.589Z,76.87
2017-11-08T15:48:15.064Z,77.10
2017-11-08T15:50:42.624Z,74.87
2017-11-08T15:53:10.875Z,75.77
2017-11-08T15:55:39.272Z,71.13
2017-11-08T15:58:06.734Z,97.57
2017-11-08T16:00:34.289Z,80.10
2017-11-08T16:03:01.776Z,80.07
2017-11-08T16:05:30.024Z,77.97
2017-11-08T16:07:57.997Z,77.77
2017-11-08T16:10:25.559Z,77.40
2017-11-08T16:12:55.587Z,82.90
2017-11-08T16:15:23.819Z,84.50
2017-11-08T16:17:52.283Z,76.27
2017-11-08T16:20:20.397Z,85.20
2017-11-08T16:22:47.949Z,84.90
2017-11-08T16:25:15.412Z,86.67
2017-11-08T16:27:42.877Z,81.53
2017-11-08T16:30:11.130Z,76.83
2017-11-08T16:32:38.649Z,78.40
2017-11-08T16:35:06.172Z,82.67
2017-11-08T16:37:34.424Z,88.03
2017-11-08T16:40:01.924Z,82.73
2017-11-08T16:42:29.413Z,86.47
2017-11-08T16:44:56.892Z,88.00
2017-11-08T16:47:24.364Z,90.67
2017-11-08T16:49:51.835Z,94.03
2017-11-08T16:52:20.583Z,86.70
2017-11-08T16:54:48.057Z,86.90
2017-11-08T16:57:15.641Z,80.03
2017-11-08T16:59:43.893Z,89.63
2017-11-08T17:02:11.569Z,87.10
2017-11-08T17:04:39.119Z,88.50
2017-11-08T17:07:06.576Z,88.07
2017-11-08T17:09:34.037Z,78.50
2017-11-08T17:12:02.334Z,78.83
2017-11-08T17:14:30.584Z,80.37
2017-11-08T17:16:58.892Z,82.07
2017-11-08T17:19:26.366Z,82.33
2017-11-08T17:21:53.835Z,76.67
2017-11-08T17:24:21.333Z,86.23
2017-11-08T17:26:49.618Z,83.40
2017-11-08T17:29:17.850Z,90.50
2017-11-08T17:31:45.953Z,85.90
2017-11-08T17:34:13.469Z,92.20
2017-11-08T17:36:40.964Z,75.20
2017-11-08T17:39:08.428Z,93.37
2017-11-08T17:41:36.005Z,85.10
2017-11-08T17:44:04.249Z,74.70
2017-11-08T17:46:31.822Z,82.90
2017-11-08T17:48:59.300Z,87.10
2017-11-08T17:51:27.460Z,80.97
2017-11-08T17:53:55.716Z,84.63
2017-11-08T17:56:23.197Z,87.80
2017-11-08T17:58:51.425Z,81.43
2017-11-08T18:01:18.888Z,78.87
2017-11-08T18:03:46.463Z,92.00
2017-11-08T18:06:13.926Z,79.00
2017-11-08T18:08:41.392Z,85.77
2017-11-08T18:11:09.652Z,90.90
2017-11-08T18:13:37.108Z,75.83
2017-11-08T18:16:04.586Z,81.13
2017-11-08T18:18:32.836Z,88.40
2017-11-08T18:21:01.065Z,88.93
2017-11-08T18:23:28.536Z,92.27
2017-11-08T18:25:56.067Z,73.27
2017-11-08T18:28:23.538Z,81.50
2017-11-08T18:30:50.996Z,78.47
2017-11-08T18:33:18.464Z,78.00
2017-11-08T18:35:45.928Z,83.17
2017-11-08T18:38:13.421Z,90.27
2017-11-08T18:40:40.914Z,94.00
2017-11-08T18:43:08.429Z,88.00
2017-11-08T18:45:36.017Z,92.53
2017-11-08T18:48:04.267Z,89.40
2017-11-08T18:50:31.728Z,91.10
2017-11-08T18:52:59.188Z,93.00
2017-11-08T18:55:27.465Z,93.60
2017-11-08T18:57:55.765Z,96.90
2017-11-08T19:00:23.228Z,87.27
2017-11-08T19:02:50.753Z,86.60
2017-11-08T19:05:18.213Z,81.80
2017-11-08T19:07:46.483Z,75.43
2017-11-08T19:10:14.514Z,77.40
2017-11-08T19:12:41.976Z,84.20
2017-11-08T19:15:09.481Z,101.23
2017-11-08T19:17:36.928Z,83.77
2017-11-08T19:20:05.294Z,97.07
2017-11-08T19:22:32.772Z,83.67
2017-11-08T19:25:01.005Z,79.73
2017-11-08T19:27:28.473Z,87.90
2017-11-08T19:29:56.097Z,85.63
2017-11-08T19:32:23.564Z,73.63
2017-11-08T19:34:51.056Z,69.90
2017-11-08T19:37:19.248Z,77.57
2017-11-08T19:39:47.476Z,88.63
2017-11-08T19:42:14.967Z,82.27
2017-11-08T19:44:42.521Z,77.17
2017-11-08T19:47:09.995Z,88.17
2017-11-08T19:49:38.221Z,89.87
2017-11-08T19:52:05.685Z,83.97
2017-11-08T19:54:33.169Z,86.57
2017-11-08T19:57:00.636Z,86.40
2017-11-08T19:59:28.865Z,87.63
2017-11-08T20:01:56.345Z,86.77
2017-11-08T20:04:25.328Z,82.10
2017-11-08T20:06:52.784Z,78.80
2017-11-08T20:09:20.273Z,79.23
2017-11-08T20:11:47.727Z,82.03
2017-11-08T20:14:15.962Z,80.90
2017-11-08T20:16:43.445Z,86.30
2017-11-08T20:19:10.920Z,85.37
2017-11-08T20:21:39.152Z,76.13
2017-11-08T20:24:06.636Z,80.53
2017-11-08T20:26:34.147Z,81.87
2017-11-08T20:29:01.617Z,81.73
2017-11-08T20:31:29.097Z,75.07
2017-11-08T20:33:56.574Z,72.53
2017-11-08T20:36:24.798Z,78.37
2017-11-08T20:38:52.269Z,85.57
2017-11-08T20:41:19.756Z,77.17
2017-11-08T20:43:47.331Z,71.47
2017-11-08T20:46:15.600Z,76.90
2017-11-08T20:48:43.076Z,83.70
2017-11-08T20:51:11.324Z,80.70
2017-11-08T20:53:38.798Z,83.83
2017-11-08T20:56:07.040Z,76.53
2017-11-08T20:58:34.668Z,71.77
2017-11-08T21:01:02.129Z,80.03
2017-11-08T21:03:29.591Z,72.43
2017-11-08T21:05:57.092Z,74.70
2017-11-08T21:08:24.602Z,76.33
2017-11-08T21:10:52.118Z,69.83
2017-11-08T21:13:20.376Z,83.73
2017-11-08T21:15:47.973Z,70.77
2017-11-08T21:18:15.492Z,83.40
2017-11-08T21:20:44.983Z,74.97
2017-11-08T21:23:12.564Z,82.80
2017-11-08T21:25:40.912Z,74.27
2017-11-08T21:28:08.389Z,76.13
2017-11-08T21:30:35.851Z,76.90
2017-11-08T21:33:03.424Z,62.80
2017-11-08T21:35:31.663Z,73.47
2017-11-08T21:37:59.130Z,74.07
2017-11-08T21:40:26.602Z,73.40
2017-11-08T21:42:55.776Z,66.17
2017-11-08T21:45:23.241Z,67.20
2017-11-08T21:47:50.701Z,80.30
2017-11-08T21:50:18.266Z,80.00
2017-11-08T21:52:45.717Z,76.97
2017-11-08T21:55:13.177Z,82.57
2017-11-08T21:57:40.660Z,70.23
2017-11-08T22:00:08.889Z,76.20
2017-11-08T22:02:36.348Z,71.70
2017-11-08T22:05:03.829Z,70.37
2017-11-08T22:07:31.385Z,82.10
2017-11-08T22:09:59.676Z,76.17
2017-11-08T22:12:27.916Z,79.17
2017-11-08T22:14:55.667Z,63.40
2017-11-08T22:17:23.132Z,72.30
2017-11-08T22:19:50.711Z,70.80
2017-11-08T22:22:18.175Z,71.77
2017-11-08T22:24:46.097Z,69.93
2017-11-08T22:27:13.592Z,71.43
2017-11-08T22:29:41.041Z,73.60
2017-11-08T22:32:08.604Z,72.63
2017-11-08T22:34:37.017Z,76.40
2017-11-08T22:37:05.265Z,67.40
2017-11-08T22:39:32.726Z,75.17
2017-11-08T22:42:00.189Z,67.80
2017-11-08T22:44:28.418Z,84.20
2017-11-08T22:46:55.880Z,76.90
2017-11-08T22:49:23.481Z,82.70
2017-11-08T22:51:51.745Z,75.73
2017-11-08T22:54:19.208Z,79.47
2017-11-08T22:56:47.448Z,69.93
2017-11-08T22:59:14.908Z,79.00
2017-11-08T23:01:42.393Z,80.07
2017-11-08T23:04:09.956Z,71.70
2017-11-08T23:06:38.221Z,73.10
2017-11-08T23:09:05.785Z,67.70
2017-11-08T23:11:34.073Z,66.80
2017-11-08T23:14:02.308Z,62.23
2017-11-08T23:16:30.532Z,73.57
2017-11-08T23:18:59.077Z,68.50
2017-11-08T23:21:26.536Z,75.17
2017-11-08T23:23:54.095Z,84.37
2017-11-08T23:26:21.761Z,68.13
2017-11-08T23:28:49.219Z,76.57
2017-11-08T23:31:16.771Z,73.93
2017-11-08T23:33:44.231Z,74.67
2017-11-08T23:36:12.143Z,72.20
2017-11-08T23:38:39.599Z,71.43
2017-11-08T23:41:07.074Z,78.07
2017-11-08T23:43:35.527Z,68.03
2017-11-08T23:46:03.048Z,80.87
2017-11-08T23:48:30.506Z,86.17
2017-11-08T23:50:59.624Z,68.07
2017-11-08T23:53:27.902Z,60.10
2017-11-08T23:55:56.150Z,73.13
2017-11-08T23:58:23.605Z,74.70
